Cmb Ariane — VRIT7 — position and weather

sailwx.info

Track history (hours):
 
Tides and Currents Weather Stations Pressure Air Temp Water Temp Dewpoint Dewpoint Depression Visibility Wind Speed Wind Dir Waves Ship Positions

Cmb Ariane

Last reported at 2018-Apr-01 09:58 UTC. Time now 2018-Apr-19 17:35 UTC.
Position N 09°34' W 079°48'.
Warning: this ship's position is 18 days out of date.

Length 180 m; draft 9.7 m.

Type: Cargo ship. MMSI: 477229600.

Date/timePositionNaut miles runAvg speedWind from/ knotsBaromVisibWave heightAir tempDewpointWater temp
2018-Apr-01 09:58N 09°34' W 079°48'612.0
2018-Apr-01 09:29N 09°30' W 079°52'611.1
2018-Apr-01 08:56N 09°25' W 079°56'1 1.9
2018-Apr-01 08:28N 09°24' W 079°56'0 0.0
2018-Apr-01 07:55N 09°24' W 079°56'0 0.0
2018-Apr-01 07:25N 09°24' W 079°56'0 0.0
2018-Apr-01 06:58N 09°24' W 079°56'0 0.0
2018-Apr-01 06:28N 09°24' W 079°56'0 0.0
2018-Apr-01 05:55N 09°24' W 079°56'0 0.1
2018-Apr-01 05:28N 09°24' W 079°56'0 0.6
2018-Apr-01 05:00N 09°24' W 079°56'1 2.0
2018-Apr-01 04:30N 09°25' W 079°57'4 7.7
2018-Apr-01 03:59N 09°22' W 079°55'4 8.8
2018-Apr-01 03:30N 09°17' W 079°55'1 1.7
2018-Apr-01 02:59N 09°17' W 079°55'0 0.6
2018-Apr-01 02:29N 09°16' W 079°55'0 1.0
2018-Apr-01 02:00N 09°16' W 079°55'1 2.0
2018-Apr-01 01:30N 09°15' W 079°55'  
Track history (hours):
 
Tides and Currents Weather Stations Pressure Air Temp Water Temp Dewpoint Dewpoint Depression Visibility Wind Speed Wind Dir Waves Ship Positions

Cmb Ariane

Last reported at 2018-Apr-01 09:58 UTC. Time now 2018-Apr-19 17:35 UTC.
Position N 09°34' W 079°48'.
Warning: this ship's position is 18 days out of date.

Length 180 m; draft 9.7 m.

Type: Cargo ship. MMSI: 477229600.

Date/timePositionNaut miles runAvg speedWind from/ knotsBaromVisibWave heightAir tempDewpointWater temp
2018-Apr-01 09:58N 09°34' W 079°48'612.0
2018-Apr-01 09:29N 09°30' W 079°52'611.1
2018-Apr-01 08:56N 09°25' W 079°56'1 1.9
2018-Apr-01 08:28N 09°24' W 079°56'0 0.0
2018-Apr-01 07:55N 09°24' W 079°56'0 0.0
2018-Apr-01 07:25N 09°24' W 079°56'0 0.0
2018-Apr-01 06:58N 09°24' W 079°56'0 0.0
2018-Apr-01 06:28N 09°24' W 079°56'0 0.0
2018-Apr-01 05:55N 09°24' W 079°56'0 0.1
2018-Apr-01 05:28N 09°24' W 079°56'0 0.6
2018-Apr-01 05:00N 09°24' W 079°56'1 2.0
2018-Apr-01 04:30N 09°25' W 079°57'4 7.7
2018-Apr-01 03:59N 09°22' W 079°55'4 8.8
2018-Apr-01 03:30N 09°17' W 079°55'1 1.7
2018-Apr-01 02:59N 09°17' W 079°55'0 0.6
2018-Apr-01 02:29N 09°16' W 079°55'0 1.0
2018-Apr-01 02:00N 09°16' W 079°55'1 2.0
2018-Apr-01 01:30N 09°15' W 079°55'  

Dump ship's entire track history